sensor_id;sensor_type;location;lat;lon;timestamp;pressure;altitude;pressure_sealevel;temperature;humidity
47785;BME280;35233;55.686;37.848;2022-12-29T00:01:34;99523.69;;;8.64;59.63
47785;BME280;35233;55.686;37.848;2022-12-29T00:04:00;99530.69;;;8.65;59.37
47785;BME280;35233;55.686;37.848;2022-12-29T00:06:26;99528.00;;;8.66;59.33
47785;BME280;35233;55.686;37.848;2022-12-29T00:08:52;99536.81;;;8.65;59.13
47785;BME280;35233;55.686;37.848;2022-12-29T00:11:28;99528.06;;;8.65;59.30
47785;BME280;35233;55.686;37.848;2022-12-29T00:13:54;99515.06;;;8.57;59.28
47785;BME280;35233;55.686;37.848;2022-12-29T00:16:40;99515.13;;;8.55;59.39
47785;BME280;35233;55.686;37.848;2022-12-29T00:19:07;99525.56;;;8.58;59.42
47785;BME280;35233;55.686;37.848;2022-12-29T00:21:52;99538.59;;;8.65;59.31
47785;BME280;35233;55.686;37.848;2022-12-29T00:24:36;99525.63;;;8.55;59.58
47785;BME280;35233;55.686;37.848;2022-12-29T00:29:45;99539.53;;;8.62;59.43
47785;BME280;35233;55.686;37.848;2022-12-29T00:32:30;99543.03;;;8.63;59.42
47785;BME280;35233;55.686;37.848;2022-12-29T00:35:26;99541.31;;;8.61;59.36
47785;BME280;35233;55.686;37.848;2022-12-29T00:37:54;99547.50;;;8.59;59.43
47785;BME280;35233;55.686;37.848;2022-12-29T00:40:40;99545.66;;;8.63;59.30
47785;BME280;35233;55.686;37.848;2022-12-29T00:43:24;99547.44;;;8.62;59.17
47785;BME280;35233;55.686;37.848;2022-12-29T00:46:08;99550.97;;;8.61;59.37
47785;BME280;35233;55.686;37.848;2022-12-29T00:48:33;99549.22;;;8.60;59.11
47785;BME280;35233;55.686;37.848;2022-12-29T00:51:17;99555.34;;;8.60;59.35
47785;BME280;35233;55.686;37.848;2022-12-29T00:53:43;99553.69;;;8.56;59.25
47785;BME280;35233;55.686;37.848;2022-12-29T00:56:08;99558.88;;;8.59;59.63
47785;BME280;35233;55.686;37.848;2022-12-29T00:58:34;99555.47;;;8.54;59.51
47785;BME280;35233;55.686;37.848;2022-12-29T01:01:07;99564.22;;;8.56;59.52
47785;BME280;35233;55.686;37.848;2022-12-29T01:03:35;99565.13;;;8.55;59.38
47785;BME280;35233;55.686;37.848;2022-12-29T01:06:02;99560.72;;;8.56;59.52
47785;BME280;35233;55.686;37.848;2022-12-29T01:08:28;99553.81;;;8.50;59.51
47785;BME280;35233;55.686;37.848;2022-12-29T01:11:04;99563.38;;;8.54;59.16
47785;BME280;35233;55.686;37.848;2022-12-29T01:13:30;99565.09;;;8.57;59.38
47785;BME280;35233;55.686;37.848;2022-12-29T01:15:57;99564.25;;;8.55;59.23
47785;BME280;35233;55.686;37.848;2022-12-29T01:18:24;99568.63;;;8.56;59.17
47785;BME280;35233;55.686;37.848;2022-12-29T01:20:52;99566.00;;;8.54;59.24
47785;BME280;35233;55.686;37.848;2022-12-29T01:23:23;99573.91;;;8.56;59.16
47785;BME280;35233;55.686;37.848;2022-12-29T01:25:48;99556.53;;;8.47;59.21
47785;BME280;35233;55.686;37.848;2022-12-29T01:28:14;99575.75;;;8.51;59.45
47785;BME280;35233;55.686;37.848;2022-12-29T01:30:39;99575.69;;;8.54;59.23
47785;BME280;35233;55.686;37.848;2022-12-29T01:33:05;99573.13;;;8.51;58.93
47785;BME280;35233;55.686;37.848;2022-12-29T01:35:30;99567.06;;;8.46;59.39
47785;BME280;35233;55.686;37.848;2022-12-29T01:37:56;99587.16;;;8.51;59.05
47785;BME280;35233;55.686;37.848;2022-12-29T01:40:21;99578.47;;;8.46;58.89
47785;BME280;35233;55.686;37.848;2022-12-29T01:42:47;99576.81;;;8.42;59.24
47785;BME280;35233;55.686;37.848;2022-12-29T01:45:15;99577.59;;;8.46;59.04
47785;BME280;35233;55.686;37.848;2022-12-29T01:47:57;99588.06;;;8.50;59.27
47785;BME280;35233;55.686;37.848;2022-12-29T01:50:35;99582.00;;;8.45;59.17
47785;BME280;35233;55.686;37.848;2022-12-29T01:53:09;99581.09;;;8.46;58.94
47785;BME280;35233;55.686;37.848;2022-12-29T01:55:43;99583.72;;;8.46;59.08
47785;BME280;35233;55.686;37.848;2022-12-29T01:58:10;99585.56;;;8.44;59.22
47785;BME280;35233;55.686;37.848;2022-12-29T02:00:38;99583.78;;;8.43;59.04
47785;BME280;35233;55.686;37.848;2022-12-29T02:03:05;99577.66;;;8.43;58.73
47785;BME280;35233;55.686;37.848;2022-12-29T02:06:09;99582.91;;;8.44;58.94
47785;BME280;35233;55.686;37.848;2022-12-29T02:08:37;99572.47;;;8.39;58.92
47785;BME280;35233;55.686;37.848;2022-12-29T02:11:04;99584.72;;;8.41;58.70
47785;BME280;35233;55.686;37.848;2022-12-29T02:13:30;99585.63;;;8.41;59.12
47785;BME280;35233;55.686;37.848;2022-12-29T02:27:01;99598.78;;;8.39;58.69
47785;BME280;35233;55.686;37.848;2022-12-29T02:40:57;99605.78;;;8.41;58.58
47785;BME280;35233;55.686;37.848;2022-12-29T02:43:32;99600.53;;;8.37;58.81
47785;BME280;35233;55.686;37.848;2022-12-29T02:46:20;99597.94;;;8.39;58.55
47785;BME280;35233;55.686;37.848;2022-12-29T02:51:51;99604.09;;;8.36;58.58
47785;BME280;35233;55.686;37.848;2022-12-29T02:54:19;99602.38;;;8.35;58.51
47785;BME280;35233;55.686;37.848;2022-12-29T02:57:04;99590.28;;;8.25;58.59
47785;BME280;35233;55.686;37.848;2022-12-29T02:59:30;99603.34;;;8.30;58.74
47785;BME280;35233;55.686;37.848;2022-12-29T03:12:49;99624.41;;;8.30;58.60
47785;BME280;35233;55.686;37.848;2022-12-29T03:15:55;99615.78;;;8.22;58.68
47785;BME280;35233;55.686;37.848;2022-12-29T03:18:46;99631.50;;;8.26;58.98
47785;BME280;35233;55.686;37.848;2022-12-29T03:21:36;99630.59;;;8.26;58.55
47785;BME280;35233;55.686;37.848;2022-12-29T03:24:27;99644.72;;;8.23;58.58
47785;BME280;35233;55.686;37.848;2022-12-29T03:26:57;99639.53;;;8.19;58.73
47785;BME280;35233;55.686;37.848;2022-12-29T03:29:24;99648.22;;;8.22;58.66
47785;BME280;35233;55.686;37.848;2022-12-29T03:31:52;99629.03;;;8.17;58.50
47785;BME280;35233;55.686;37.848;2022-12-29T03:34:20;99649.03;;;8.26;58.55
47785;BME280;35233;55.686;37.848;2022-12-29T03:36:53;99652.63;;;8.23;58.44
47785;BME280;35233;55.686;37.848;2022-12-29T03:39:22;99648.22;;;8.22;58.61
47785;BME280;35233;55.686;37.848;2022-12-29T03:41:50;99649.09;;;8.23;58.57
47785;BME280;35233;55.686;37.848;2022-12-29T03:44:16;99650.00;;;8.20;58.57
47785;BME280;35233;55.686;37.848;2022-12-29T03:46:42;99657.03;;;8.21;58.57
47785;BME280;35233;55.686;37.848;2022-12-29T03:49:08;99668.41;;;8.22;58.91
47785;BME280;35233;55.686;37.848;2022-12-29T03:51:33;99665.84;;;8.19;58.31
47785;BME280;35233;55.686;37.848;2022-12-29T03:53:59;99682.44;;;8.22;58.36
47785;BME280;35233;55.686;37.848;2022-12-29T03:56:24;99653.75;;;8.08;58.46
47785;BME280;35233;55.686;37.848;2022-12-29T03:58:50;99684.28;;;8.19;58.62
47785;BME280;35233;55.686;37.848;2022-12-29T04:01:15;99679.00;;;8.19;58.75
47785;BME280;35233;55.686;37.848;2022-12-29T04:03:41;99681.59;;;8.20;58.78
47785;BME280;35233;55.686;37.848;2022-12-29T04:06:06;99680.78;;;8.18;58.25
47785;BME280;35233;55.686;37.848;2022-12-29T04:08:32;99682.59;;;8.14;58.55
47785;BME280;35233;55.686;37.848;2022-12-29T04:10:58;99678.19;;;8.15;58.61
47785;BME280;35233;55.686;37.848;2022-12-29T04:13:23;99682.53;;;8.18;58.30
47785;BME280;35233;55.686;37.848;2022-12-29T04:15:49;99677.34;;;8.14;58.46
47785;BME280;35233;55.686;37.848;2022-12-29T04:18:15;99671.22;;;8.12;58.10
47785;BME280;35233;55.686;37.848;2022-12-29T04:20:41;99673.06;;;8.09;58.09
47785;BME280;35233;55.686;37.848;2022-12-29T04:23:26;99675.63;;;8.12;58.39
47785;BME280;35233;55.686;37.848;2022-12-29T04:25:54;99679.19;;;8.09;58.19
47785;BME280;35233;55.686;37.848;2022-12-29T04:28:20;99688.78;;;8.12;58.32
47785;BME280;35233;55.686;37.848;2022-12-29T04:30:46;99672.22;;;8.05;58.18
47785;BME280;35233;55.686;37.848;2022-12-29T04:33:12;99670.94;;;8.74;60.16
47785;BME280;35233;55.686;37.848;2022-12-29T04:35:38;99669.25;;;9.12;56.89
47785;BME280;35233;55.686;37.848;2022-12-29T04:38:03;99679.94;;;8.64;57.99
47785;BME280;35233;55.686;37.848;2022-12-29T04:40:29;99668.09;;;8.42;58.44
47785;BME280;35233;55.686;37.848;2022-12-29T04:42:55;99678.66;;;8.37;59.10
47785;BME280;35233;55.686;37.848;2022-12-29T04:45:21;99672.59;;;8.33;58.95
47785;BME280;35233;55.686;37.848;2022-12-29T04:47:46;99682.38;;;8.27;59.02
47785;BME280;35233;55.686;37.848;2022-12-29T04:50:12;99685.88;;;8.27;59.32
47785;BME280;35233;55.686;37.848;2022-12-29T04:52:38;99676.31;;;8.23;59.03
47785;BME280;35233;55.686;37.848;2022-12-29T04:55:04;99691.13;;;8.26;59.51
47785;BME280;35233;55.686;37.848;2022-12-29T04:57:30;99682.47;;;8.21;59.37
47785;BME280;35233;55.686;37.848;2022-12-29T04:59:56;99693.81;;;8.23;59.52
47785;BME280;35233;55.686;37.848;2022-12-29T05:02:22;99666.03;;;8.09;59.64
47785;BME280;35233;55.686;37.848;2022-12-29T05:04:47;99687.00;;;8.12;59.90
47785;BME280;35233;55.686;37.848;2022-12-29T05:07:13;99690.50;;;8.13;59.93
47785;BME280;35233;55.686;37.848;2022-12-29T05:09:39;99696.63;;;8.15;59.79
47785;BME280;35233;55.686;37.848;2022-12-29T05:12:05;99702.78;;;8.12;59.84
47785;BME280;35233;55.686;37.848;2022-12-29T05:14:30;99718.50;;;8.17;60.10
47785;BME280;35233;55.686;37.848;2022-12-29T05:16:56;99721.16;;;8.15;60.32
47785;BME280;35233;55.686;37.848;2022-12-29T05:19:22;99717.63;;;8.16;59.97
47785;BME280;35233;55.686;37.848;2022-12-29T05:21:47;99716.81;;;8.13;59.85
47785;BME280;35233;55.686;37.848;2022-12-29T05:24:13;99725.53;;;8.16;60.08
47785;BME280;35233;55.686;37.848;2022-12-29T05:26:39;99726.47;;;8.12;60.15
47785;BME280;35233;55.686;37.848;2022-12-29T05:29:04;99714.25;;;8.08;59.92
47785;BME280;35233;55.686;37.848;2022-12-29T05:31:30;99716.81;;;8.13;59.78
47785;BME280;35233;55.686;37.848;2022-12-29T05:33:55;99718.59;;;8.12;59.90
47785;BME280;35233;55.686;37.848;2022-12-29T05:36:21;99725.63;;;8.12;59.67
47785;BME280;35233;55.686;37.848;2022-12-29T05:39:00;99736.16;;;8.10;59.70
47785;BME280;35233;55.686;37.848;2022-12-29T05:41:26;99715.31;;;7.97;59.43
47785;BME280;35233;55.686;37.848;2022-12-29T05:43:51;99737.97;;;8.07;59.84
47785;BME280;35233;55.686;37.848;2022-12-29T05:46:17;99729.31;;;8.00;59.97
47785;BME280;35233;55.686;37.848;2022-12-29T05:48:42;99732.81;;;8.01;59.40
47785;BME280;35233;55.686;37.848;2022-12-29T05:51:08;99733.69;;;8.01;59.61
47785;BME280;35233;55.686;37.848;2022-12-29T05:53:34;99738.09;;;8.01;59.11
47785;BME280;35233;55.686;37.848;2022-12-29T05:56:00;99736.25;;;8.06;59.63
47785;BME280;35233;55.686;37.848;2022-12-29T05:58:25;99728.47;;;7.98;59.38
47785;BME280;35233;55.686;37.848;2022-12-29T06:00:53;99744.16;;;8.04;59.32
47785;BME280;35233;55.686;37.848;2022-12-29T06:03:19;99746.78;;;8.04;59.34
47785;BME280;35233;55.686;37.848;2022-12-29T06:05:47;99745.06;;;8.02;59.42
47785;BME280;35233;55.686;37.848;2022-12-29T06:08:13;99745.97;;;7.99;59.44
47785;BME280;35233;55.686;37.848;2022-12-29T06:10:38;99741.63;;;7.97;59.27
47785;BME280;35233;55.686;37.848;2022-12-29T06:13:04;99749.47;;;8.01;59.39
47785;BME280;35233;55.686;37.848;2022-12-29T06:15:31;99750.31;;;8.02;59.14
47785;BME280;35233;55.686;37.848;2022-12-29T06:17:57;99753.88;;;8.01;59.29
47785;BME280;35233;55.686;37.848;2022-12-29T06:20:24;99752.97;;;8.02;59.41
47785;BME280;35233;55.686;37.848;2022-12-29T06:22:52;99753.88;;;8.01;59.28
47785;BME280;35233;55.686;37.848;2022-12-29T06:25:18;99751.25;;;7.99;59.32
47785;BME280;35233;55.686;37.848;2022-12-29T06:27:44;99752.09;;;8.01;59.38
47785;BME280;35233;55.686;37.848;2022-12-29T06:30:10;99752.94;;;8.03;59.10
47785;BME280;35233;55.686;37.848;2022-12-29T06:32:36;99758.97;;;8.10;58.93
47785;BME280;35233;55.686;37.848;2022-12-29T06:35:03;99754.53;;;8.13;59.00
47785;BME280;35233;55.686;37.848;2022-12-29T06:37:31;99750.22;;;8.08;58.90
47785;BME280;35233;55.686;37.848;2022-12-29T06:39:57;99737.97;;;8.07;58.92
47785;BME280;35233;55.686;37.848;2022-12-29T06:42:29;99749.25;;;8.13;58.81
47785;BME280;35233;55.686;37.848;2022-12-29T06:44:54;99757.09;;;8.16;58.76
47785;BME280;35233;55.686;37.848;2022-12-29T06:47:34;99745.72;;;8.16;58.30
47785;BME280;35233;55.686;37.848;2022-12-29T06:50:01;99747.44;;;8.17;58.26
47785;BME280;35233;55.686;37.848;2022-12-29T06:52:30;99755.25;;;8.22;58.56
47785;BME280;35233;55.686;37.848;2022-12-29T06:55:05;99760.47;;;8.25;58.35
47785;BME280;35233;55.686;37.848;2022-12-29T06:57:31;99755.19;;;8.26;57.97
47785;BME280;35233;55.686;37.848;2022-12-29T06:59:56;99762.13;;;8.29;57.92
47785;BME280;35233;55.686;37.848;2022-12-29T07:02:22;99761.28;;;8.30;58.16
47785;BME280;35233;55.686;37.848;2022-12-29T07:04:51;99754.25;;;8.29;58.00
47785;BME280;35233;55.686;37.848;2022-12-29T07:07:18;99755.84;;;8.37;57.86
47785;BME280;35233;55.686;37.848;2022-12-29T07:09:44;99750.53;;;8.44;57.63
47785;BME280;35233;55.686;37.848;2022-12-29T07:12:09;99755.00;;;8.37;57.84
47785;BME280;35233;55.686;37.848;2022-12-29T07:14:35;99758.47;;;8.37;57.82
47785;BME280;35233;55.686;37.848;2022-12-29T07:17:01;99747.25;;;8.29;57.96
47785;BME280;35233;55.686;37.848;2022-12-29T07:19:31;99759.44;;;8.35;57.86
47785;BME280;35233;55.686;37.848;2022-12-29T07:21:56;99755.94;;;8.33;57.59
47785;BME280;35233;55.686;37.848;2022-12-29T07:24:22;99768.13;;;8.40;57.61
47785;BME280;35233;55.686;37.848;2022-12-29T07:26:47;99760.28;;;8.38;57.24
47785;BME280;35233;55.686;37.848;2022-12-29T07:29:13;99762.00;;;8.41;57.36
47785;BME280;35233;55.686;37.848;2022-12-29T07:31:38;99768.06;;;8.45;57.35
47785;BME280;35233;55.686;37.848;2022-12-29T07:34:04;99772.47;;;8.44;57.57
47785;BME280;35233;55.686;37.848;2022-12-29T07:36:29;99767.19;;;8.44;57.45
47785;BME280;35233;55.686;37.848;2022-12-29T07:38:55;99770.63;;;8.48;57.27
47785;BME280;35233;55.686;37.848;2022-12-29T07:41:20;99756.66;;;8.44;57.20
47785;BME280;35233;55.686;37.848;2022-12-29T07:43:47;99763.59;;;8.50;57.03
47785;BME280;35233;55.686;37.848;2022-12-29T07:46:14;99753.19;;;8.41;56.98
47785;BME280;35233;55.686;37.848;2022-12-29T07:48:39;99767.09;;;8.49;56.94
47785;BME280;35233;55.686;37.848;2022-12-29T07:51:05;99763.69;;;8.44;56.98
47785;BME280;35233;55.686;37.848;2022-12-29T07:53:30;99780.13;;;8.56;56.68
47785;BME280;35233;55.686;37.848;2022-12-29T07:55:56;99783.63;;;8.58;56.73
47785;BME280;35233;55.686;37.848;2022-12-29T07:58:21;99778.41;;;8.55;56.84
47785;BME280;35233;55.686;37.848;2022-12-29T08:00:47;99777.31;;;8.66;56.70
47785;BME280;35233;55.686;37.848;2022-12-29T08:03:12;99785.22;;;8.66;56.65
47785;BME280;35233;55.686;37.848;2022-12-29T08:05:38;99791.31;;;8.69;56.63
47785;BME280;35233;55.686;37.848;2022-12-29T08:08:03;99789.56;;;8.70;56.72
47785;BME280;35233;55.686;37.848;2022-12-29T08:10:29;99786.88;;;8.71;56.64
47785;BME280;35233;55.686;37.848;2022-12-29T08:12:54;99789.50;;;8.71;56.43
47785;BME280;35233;55.686;37.848;2022-12-29T08:15:20;99786.13;;;8.65;56.68
47785;BME280;35233;55.686;37.848;2022-12-29T08:17:45;99795.66;;;8.72;56.46
47785;BME280;35233;55.686;37.848;2022-12-29T08:20:11;99793.06;;;8.69;56.71
47785;BME280;35233;55.686;37.848;2022-12-29T08:22:37;99789.56;;;8.70;56.71
47785;BME280;35233;55.686;37.848;2022-12-29T08:25:03;99796.56;;;8.71;56.62
47785;BME280;35233;55.686;37.848;2022-12-29T08:27:28;99787.88;;;8.66;56.76
47785;BME280;35233;55.686;37.848;2022-12-29T08:29:54;99796.50;;;8.72;56.47
47785;BME280;35233;55.686;37.848;2022-12-29T08:32:20;99807.94;;;8.73;56.97
47785;BME280;35233;55.686;37.848;2022-12-29T08:34:45;99795.59;;;8.75;56.36
47785;BME280;35233;55.686;37.848;2022-12-29T08:37:11;99802.50;;;8.82;56.39
47785;BME280;35233;55.686;37.848;2022-12-29T08:39:39;99799.06;;;8.77;56.35
47785;BME280;35233;55.686;37.848;2022-12-29T08:42:05;99804.41;;;8.74;56.42
47785;BME280;35233;55.686;37.848;2022-12-29T08:44:31;99790.50;;;8.66;56.39
47785;BME280;35233;55.686;37.848;2022-12-29T08:46:56;99803.53;;;8.73;56.35
47785;BME280;35233;55.686;37.848;2022-12-29T08:49:22;99796.50;;;8.74;56.39
47785;BME280;35233;55.686;37.848;2022-12-29T08:54:48;99803.19;;;8.92;55.90
47785;BME280;35233;55.686;37.848;2022-12-29T08:57:13;99792.72;;;8.87;55.78
47785;BME280;35233;55.686;37.848;2022-12-29T08:59:39;99808.50;;;8.90;55.69
47785;BME280;35233;55.686;37.848;2022-12-29T09:02:05;99813.78;;;8.87;55.82
47785;BME280;35233;55.686;37.848;2022-12-29T09:04:30;99812.00;;;8.91;55.63
47785;BME280;35233;55.686;37.848;2022-12-29T09:06:56;99806.75;;;8.89;55.62
47785;BME280;35233;55.686;37.848;2022-12-29T09:09:21;99788.28;;;8.91;55.42
47785;BME280;35233;55.686;37.848;2022-12-29T09:11:47;99802.25;;;8.94;55.37
47785;BME280;35233;55.686;37.848;2022-12-29T09:14:13;99806.66;;;8.94;55.64
47785;BME280;35233;55.686;37.848;2022-12-29T09:16:39;99806.66;;;8.94;55.56
47785;BME280;35233;55.686;37.848;2022-12-29T09:19:04;99806.75;;;8.89;55.67
47785;BME280;35233;55.686;37.848;2022-12-29T09:21:30;99792.91;;;8.78;55.58
47785;BME280;35233;55.686;37.848;2022-12-29T09:23:56;99810.28;;;8.88;55.37
47785;BME280;35233;55.686;37.848;2022-12-29T09:26:22;99796.31;;;8.83;55.13
47785;BME280;35233;55.686;37.848;2022-12-29T09:28:47;99803.25;;;8.89;55.21
47785;BME280;35233;55.686;37.848;2022-12-29T09:31:13;99805.75;;;8.95;55.07
47785;BME280;35233;55.686;37.848;2022-12-29T09:33:39;99801.28;;;9.00;54.97
47785;BME280;35233;55.686;37.848;2022-12-29T09:36:10;99797.91;;;8.92;54.83
47785;BME280;35233;55.686;37.848;2022-12-29T09:38:36;99796.19;;;8.89;55.00
47785;BME280;35233;55.686;37.848;2022-12-29T09:41:11;99805.84;;;8.90;54.96
47785;BME280;35233;55.686;37.848;2022-12-29T09:46:46;99809.31;;;8.92;54.50
47785;BME280;35233;55.686;37.848;2022-12-29T09:52:32;99799.56;;;8.96;54.54
47785;BME280;35233;55.686;37.848;2022-12-29T09:55:09;99806.59;;;8.97;54.53
47785;BME280;35233;55.686;37.848;2022-12-29T09:57:40;99802.13;;;9.00;54.44
47785;BME280;35233;55.686;37.848;2022-12-29T10:00:20;99808.06;;;9.12;54.01
47785;BME280;35233;55.686;37.848;2022-12-29T10:10:38;99805.56;;;9.04;54.13
47785;BME280;35233;55.686;37.848;2022-12-29T10:13:20;99805.75;;;8.96;54.13
47785;BME280;35233;55.686;37.848;2022-12-29T10:16:03;99797.97;;;8.87;54.32
47785;BME280;35233;55.686;37.848;2022-12-29T10:23:56;99802.50;;;8.80;54.36
47785;BME280;35233;55.686;37.848;2022-12-29T10:26:31;99807.81;;;8.79;54.54
47785;BME280;35233;55.686;37.848;2022-12-29T10:29:06;99814.88;;;8.77;54.43
47785;BME280;35233;55.686;37.848;2022-12-29T10:31:40;99808.75;;;8.76;54.51
47785;BME280;35233;55.686;37.848;2022-12-29T10:34:22;99806.91;;;8.81;54.53
47785;BME280;35233;55.686;37.848;2022-12-29T10:36:55;99811.38;;;8.76;54.76
47785;BME280;35233;55.686;37.848;2022-12-29T10:39:43;99807.94;;;8.71;54.55
47785;BME280;35233;55.686;37.848;2022-12-29T10:44:48;99818.41;;;8.76;54.57
47785;BME280;35233;55.686;37.848;2022-12-29T10:47:19;99811.38;;;8.75;54.58
47785;BME280;35233;55.686;37.848;2022-12-29T10:49:47;99820.16;;;8.77;54.78
47785;BME280;35233;55.686;37.848;2022-12-29T10:52:16;99814.88;;;8.77;55.13
47785;BME280;35233;55.686;37.848;2022-12-29T10:57:38;99809.59;;;8.77;54.79
47785;BME280;35233;55.686;37.848;2022-12-29T11:08:18;99785.22;;;8.66;54.33
47785;BME280;35233;55.686;37.848;2022-12-29T11:10:45;99797.47;;;8.70;54.22
47785;BME280;35233;55.686;37.848;2022-12-29T11:15:58;99796.50;;;8.74;54.39
47785;BME280;35233;55.686;37.848;2022-12-29T11:18:38;99800.84;;;8.75;54.20
47785;BME280;35233;55.686;37.848;2022-12-29T11:21:27;99797.41;;;8.73;54.24
47785;BME280;35233;55.686;37.848;2022-12-29T11:24:03;99785.16;;;8.69;54.04
47785;BME280;35233;55.686;37.848;2022-12-29T11:26:30;99800.00;;;8.74;54.20
47785;BME280;35233;55.686;37.848;2022-12-29T11:31:49;99802.75;;;8.67;54.26
47785;BME280;35233;55.686;37.848;2022-12-29T11:34:23;99805.38;;;8.68;54.46
47785;BME280;35233;55.686;37.848;2022-12-29T11:36:52;99808.00;;;8.68;54.43
47785;BME280;35233;55.686;37.848;2022-12-29T11:39:39;99801.81;;;8.71;54.42
47785;BME280;35233;55.686;37.848;2022-12-29T11:42:13;99780.13;;;8.56;54.52
47785;BME280;35233;55.686;37.848;2022-12-29T11:44:43;99794.91;;;8.64;54.49
47785;BME280;35233;55.686;37.848;2022-12-29T11:47:13;99802.72;;;8.70;54.54
47785;BME280;35233;55.686;37.848;2022-12-29T11:49:49;99803.56;;;8.72;54.28
47785;BME280;35233;55.686;37.848;2022-12-29T11:52:16;99805.38;;;8.68;54.70
47785;BME280;35233;55.686;37.848;2022-12-29T11:54:45;99809.69;;;8.72;54.45
47785;BME280;35233;55.686;37.848;2022-12-29T11:57:15;99799.31;;;8.65;54.54
47785;BME280;35233;55.686;37.848;2022-12-29T11:59:50;99810.66;;;8.68;54.54
47785;BME280;35233;55.686;37.848;2022-12-29T12:02:33;99809.78;;;8.68;54.29
47785;BME280;35233;55.686;37.848;2022-12-29T12:07:40;99810.69;;;8.65;54.61
47785;BME280;35233;55.686;37.848;2022-12-29T12:10:14;99825.63;;;8.65;54.78
47785;BME280;35233;55.686;37.848;2022-12-29T12:12:44;99822.16;;;8.63;54.56
47785;BME280;35233;55.686;37.848;2022-12-29T12:15:22;99824.84;;;8.58;54.75
47785;BME280;35233;55.686;37.848;2022-12-29T12:17:54;99829.19;;;8.60;54.65
47785;BME280;35233;55.686;37.848;2022-12-29T12:20:41;99817.06;;;8.53;54.50
47785;BME280;35233;55.686;37.848;2022-12-29T12:23:20;99831.06;;;8.55;54.70
47785;BME280;35233;55.686;37.848;2022-12-29T12:25:59;99827.63;;;8.50;54.64
47785;BME280;35233;55.686;37.848;2022-12-29T12:28:37;99830.22;;;8.53;54.44
47785;BME280;35233;55.686;37.848;2022-12-29T12:31:18;99819.75;;;8.49;54.81
47785;BME280;35233;55.686;37.848;2022-12-29T12:33:53;99817.97;;;8.49;54.61
47785;BME280;35233;55.686;37.848;2022-12-29T12:39:08;99820.63;;;8.49;54.66
47785;BME280;35233;55.686;37.848;2022-12-29T12:50:14;99813.72;;;8.42;54.67
47785;BME280;35233;55.686;37.848;2022-12-29T12:52:54;99822.44;;;8.46;54.62
47785;BME280;35233;55.686;37.848;2022-12-29T13:04:08;99821.63;;;8.44;54.51
47785;BME280;35233;55.686;37.848;2022-12-29T13:06:58;99813.72;;;8.42;54.67
47785;BME280;35233;55.686;37.848;2022-12-29T13:09:55;99820.81;;;8.38;54.83
47785;BME280;35233;55.686;37.848;2022-12-29T13:15:15;99824.28;;;8.41;54.57
47785;BME280;35233;55.686;37.848;2022-12-29T13:26:03;99828.69;;;8.37;54.99
47785;BME280;35233;55.686;37.848;2022-12-29T13:28:52;99829.56;;;8.37;54.93
47785;BME280;35233;55.686;37.848;2022-12-29T13:31:38;99831.31;;;8.37;54.60
47785;BME280;35233;55.686;37.848;2022-12-29T13:36:54;99819.91;;;8.38;55.02
47785;BME280;35233;55.686;37.848;2022-12-29T13:41:56;99818.19;;;8.38;54.58
47785;BME280;35233;55.686;37.848;2022-12-29T13:49:51;99813.84;;;8.33;54.79
47785;BME280;35233;55.686;37.848;2022-12-29T13:57:52;99819.06;;;8.36;54.81
47785;BME280;35233;55.686;37.848;2022-12-29T14:00:21;99801.63;;;8.29;54.79
47785;BME280;35233;55.686;37.848;2022-12-29T14:03:14;99818.22;;;8.34;54.75
47785;BME280;35233;55.686;37.848;2022-12-29T14:05:45;99820.00;;;8.33;54.99
47785;BME280;35233;55.686;37.848;2022-12-29T14:08:27;99816.50;;;8.33;54.72
47785;BME280;35233;55.686;37.848;2022-12-29T14:10:53;99819.13;;;8.31;54.65
47785;BME280;35233;55.686;37.848;2022-12-29T14:13:21;99813.91;;;8.30;54.84
47785;BME280;35233;55.686;37.848;2022-12-29T14:15:57;99794.78;;;8.19;54.84
47785;BME280;35233;55.686;37.848;2022-12-29T14:18:26;99817.38;;;8.32;54.92
47785;BME280;35233;55.686;37.848;2022-12-29T14:23:41;99820.00;;;8.32;54.61
47785;BME280;35233;55.686;37.848;2022-12-29T14:33:41;99802.63;;;8.22;54.73
47785;BME280;35233;55.686;37.848;2022-12-29T14:36:36;99823.56;;;8.29;54.83
47785;BME280;35233;55.686;37.848;2022-12-29T14:39:30;99819.19;;;8.28;54.73
47785;BME280;35233;55.686;37.848;2022-12-29T14:42:20;99820.03;;;8.29;54.77
47785;BME280;35233;55.686;37.848;2022-12-29T14:50:06;99818.38;;;8.25;55.10
47785;BME280;35233;55.686;37.848;2022-12-29T14:52:51;99810.47;;;8.25;54.99
47785;BME280;35233;55.686;37.848;2022-12-29T14:57:57;99821.81;;;8.28;54.79
47785;BME280;35233;55.686;37.848;2022-12-29T15:00:30;99825.31;;;8.30;54.87
47785;BME280;35233;55.686;37.848;2022-12-29T15:08:12;99821.84;;;8.27;54.73
47785;BME280;35233;55.686;37.848;2022-12-29T15:10:43;99823.63;;;8.26;54.98
47785;BME280;35233;55.686;37.848;2022-12-29T15:13:17;99821.81;;;8.28;54.71
47785;BME280;35233;55.686;37.848;2022-12-29T15:15:43;99822.72;;;8.27;54.66
47785;BME280;35233;55.686;37.848;2022-12-29T15:18:25;99818.38;;;8.25;55.07
47785;BME280;35233;55.686;37.848;2022-12-29T15:20:55;99817.41;;;8.29;54.94
47785;BME280;35233;55.686;37.848;2022-12-29T15:23:22;99812.25;;;8.23;54.79
47785;BME280;35233;55.686;37.848;2022-12-29T15:25:53;99818.38;;;8.26;54.76
47785;BME280;35233;55.686;37.848;2022-12-29T15:28:20;99817.47;;;8.26;55.19
47785;BME280;35233;55.686;37.848;2022-12-29T15:30:55;99813.16;;;8.22;54.80
47785;BME280;35233;55.686;37.848;2022-12-29T15:33:22;99820.03;;;8.29;54.81
47785;BME280;35233;55.686;37.848;2022-12-29T15:35:52;99816.66;;;8.24;55.20
47785;BME280;35233;55.686;37.848;2022-12-29T15:38:27;99828.00;;;8.26;54.68
47785;BME280;35233;55.686;37.848;2022-12-29T15:40:53;99819.22;;;8.27;54.66
47785;BME280;35233;55.686;37.848;2022-12-29T15:46:02;99806.16;;;8.21;54.76
47785;BME280;35233;55.686;37.848;2022-12-29T15:48:28;99812.25;;;8.24;55.06
47785;BME280;35233;55.686;37.848;2022-12-29T15:50:55;99810.47;;;8.26;55.12
47785;BME280;35233;55.686;37.848;2022-12-29T15:53:27;99813.09;;;8.26;54.93